Time;durP1;ratioP1;P1;durP2;ratioP2;P2;SDS_P1;SDS_P2;PMS_P1;PMS_P2;Temp;Humidity;BMP_temperature;BMP_pressure;BME280_temperature;BME280_humidity;BME280_pressure;Samples;Min_cycle;Max_cycle;Signal;HPM_P1;HPM_P2
2023/09/17 00:01:05;;;;;;;31.60;5.32;;;;;;;12.63;100.00;100406.38;4802246;29;20087;-81
2023/09/17 00:03:32;;;;;;;32.70;5.07;;;;;;;12.64;100.00;100407.22;4805528;29;20520;-81
2023/09/17 00:05:58;;;;;;;30.85;6.18;;;;;;;12.67;100.00;100396.28;4784365;29;20053;-81
2023/09/17 00:08:27;;;;;;;27.83;5.22;;;;;;;12.69;100.00;100396.97;4805990;29;20041;-81
2023/09/17 00:10:53;;;;;;;24.00;5.68;;;;;;;12.71;100.00;100394.97;4775107;29;20031;-82
2023/09/17 00:13:19;;;;;;;34.78;6.97;;;;;;;12.70;100.00;100392.47;4788475;29;20047;-82
2023/09/17 00:15:45;;;;;;;40.10;5.78;;;;;;;12.69;100.00;100401.44;4793117;29;20034;-81
2023/09/17 00:18:12;;;;;;;46.95;6.22;;;;;;;12.72;100.00;100401.13;4811698;29;20041;-81
2023/09/17 00:20:38;;;;;;;36.15;7.40;;;;;;;12.72;100.00;100409.91;4809716;29;20094;-82
2023/09/17 00:23:04;;;;;;;35.13;5.80;;;;;;;12.74;100.00;100399.16;4810364;29;20042;-81
2023/09/17 00:25:30;;;;;;;30.40;6.18;;;;;;;12.79;100.00;100407.44;4815085;29;20046;-82
2023/09/17 00:27:55;;;;;;;28.05;5.70;;;;;;;12.83;100.00;100402.66;4797212;29;20042;-81
2023/09/17 00:30:22;;;;;;;34.60;6.15;;;;;;;12.81;100.00;100397.50;4784462;29;20646;-81
2023/09/17 00:32:49;;;;;;;35.70;5.50;;;;;;;12.82;100.00;100393.03;4775218;29;20411;-80
2023/09/17 00:35:15;;;;;;;40.28;5.97;;;;;;;12.82;100.00;100387.72;4814311;29;20042;-81
2023/09/17 00:37:42;;;;;;;31.88;6.18;;;;;;;12.82;100.00;100388.53;4789683;29;20436;-82
2023/09/17 00:40:11;;;;;;;44.97;6.18;;;;;;;12.82;100.00;100382.44;4773987;29;20070;-82
2023/09/17 00:42:40;;;;;;;34.42;6.20;;;;;;;12.81;100.00;100378.94;4818633;29;20042;-81
2023/09/17 00:45:09;;;;;;;40.20;6.80;;;;;;;12.84;100.00;100377.78;4788920;29;20038;-82
2023/09/17 00:47:34;;;;;;;30.25;6.93;;;;;;;12.81;100.00;100376.28;4804217;29;20034;-81
2023/09/17 00:50:02;;;;;;;35.00;5.95;;;;;;;12.83;100.00;100378.78;4790084;29;20046;-82
2023/09/17 00:52:28;;;;;;;65.43;7.53;;;;;;;12.82;100.00;100371.81;4774019;29;20197;-80
2023/09/17 00:54:55;;;;;;;28.67;5.68;;;;;;;12.87;100.00;100369.50;4805255;29;20090;-81
2023/09/17 00:57:22;;;;;;;43.35;7.25;;;;;;;12.87;100.00;100366.84;4806932;29;20046;-82
2023/09/17 00:59:48;;;;;;;40.95;8.18;;;;;;;12.85;100.00;100366.19;4806311;29;20842;-80
2023/09/17 01:02:21;;;;;;;57.00;9.38;;;;;;;12.90;100.00;100370.00;4817424;29;20038;-81
2023/09/17 01:04:49;;;;;;;45.63;7.38;;;;;;;12.90;100.00;100362.03;4813040;29;20155;-81
2023/09/17 01:07:22;;;;;;;40.72;7.95;;;;;;;12.93;100.00;100355.59;4789657;29;20639;-81
2023/09/17 01:09:52;;;;;;;61.92;8.77;;;;;;;12.93;100.00;100358.25;4803119;29;20137;-80
2023/09/17 01:12:21;;;;;;;46.83;8.95;;;;;;;12.95;100.00;100347.50;4788428;29;20086;-80
2023/09/17 01:14:49;;;;;;;54.92;8.43;;;;;;;12.94;100.00;100348.47;4797502;29;20149;-80
2023/09/17 01:17:17;;;;;;;72.47;10.38;;;;;;;12.94;100.00;100343.16;4817501;29;20037;-80
2023/09/17 01:19:45;;;;;;;44.42;8.77;;;;;;;12.98;100.00;100333.91;4797745;29;20069;-80
2023/09/17 01:22:23;;;;;;;46.95;10.02;;;;;;;12.97;100.00;100333.06;4787755;29;20063;-79
2023/09/17 01:25:14;;;;;;;47.88;9.27;;;;;;;12.97;100.00;100333.06;4786900;29;20042;-82
2023/09/17 01:27:45;;;;;;;43.63;9.65;;;;;;;12.99;100.00;100332.88;4790114;29;20039;-79
2023/09/17 01:30:15;;;;;;;46.08;10.13;;;;;;;13.01;100.00;100329.06;4802878;29;20087;-79
2023/09/17 01:32:46;;;;;;;43.42;9.80;;;;;;;13.01;100.00;100331.72;4818214;29;20046;-79
2023/09/17 01:35:17;;;;;;;33.83;9.40;;;;;;;13.05;100.00;100328.75;4785843;29;20069;-78
2023/09/17 01:37:53;;;;;;;34.20;9.40;;;;;;;13.05;100.00;100323.44;4789242;29;20050;-81
2023/09/17 01:40:23;;;;;;;46.08;9.50;;;;;;;13.06;100.00;100323.28;4803402;29;20034;-79
2023/09/17 01:42:52;;;;;;;40.50;10.05;;;;;;;13.11;100.00;100323.63;4788480;29;20522;-80
2023/09/17 01:45:20;;;;;;;35.25;10.65;;;;;;;13.12;100.00;100319.16;4788889;29;20150;-79
2023/09/17 01:47:49;;;;;;;50.80;11.50;;;;;;;13.12;100.00;100313.84;4788481;29;20038;-81
2023/09/17 01:50:17;;;;;;;56.78;11.25;;;;;;;13.13;100.00;100310.19;4818595;29;20130;-80
2023/09/17 01:52:45;;;;;;;51.22;10.98;;;;;;;13.12;100.00;100311.19;4801441;29;20112;-80
2023/09/17 01:55:13;;;;;;;49.45;10.32;;;;;;;13.18;100.00;100309.69;4794867;29;20049;-80
2023/09/17 01:57:42;;;;;;;53.95;11.57;;;;;;;13.17;100.00;100305.38;4808866;29;20095;-81
2023/09/17 02:00:18;;;;;;;39.95;10.68;;;;;;;13.20;100.00;100308.56;4804035;29;20084;-81
2023/09/17 02:02:53;;;;;;;32.05;9.43;;;;;;;13.22;100.00;100303.88;4819543;29;20110;-79
2023/09/17 02:05:24;;;;;;;36.83;10.93;;;;;;;13.22;100.00;100303.88;4801546;29;20058;-79
2023/09/17 02:07:54;;;;;;;42.40;10.02;;;;;;;13.24;100.00;100293.94;4791355;29;20039;-79
2023/09/17 02:10:24;;;;;;;54.47;10.55;;;;;;;13.24;100.00;100291.28;4801394;29;20041;-78
2023/09/17 02:12:53;;;;;;;47.75;11.45;;;;;;;13.27;100.00;100284.81;4791820;29;20593;-78
2023/09/17 02:15:21;;;;;;;34.88;10.35;;;;;;;13.24;100.00;100291.28;4804731;29;20039;-81
2023/09/17 02:17:52;;;;;;;37.10;11.52;;;;;;;13.29;100.00;100293.44;4805588;29;20483;-80
2023/09/17 02:20:20;;;;;;;45.50;10.18;;;;;;;13.29;100.00;100285.47;4820260;29;20042;-79
2023/09/17 02:22:48;;;;;;;56.90;10.25;;;;;;;13.33;100.00;100280.69;4820028;29;20090;-79
2023/09/17 02:25:16;;;;;;;29.27;9.95;;;;;;;13.31;100.00;100278.19;4787902;29;20078;-79
2023/09/17 02:27:45;;;;;;;40.70;10.23;;;;;;;13.35;100.00;100276.84;4816127;29;20575;-78
2023/09/17 02:30:13;;;;;;;34.22;10.35;;;;;;;13.35;100.00;100270.69;4824718;29;20063;-79
2023/09/17 02:32:44;;;;;;;41.63;11.80;;;;;;;13.40;100.00;100271.03;4802339;29;20035;-79
2023/09/17 02:35:13;;;;;;;29.98;10.55;;;;;;;13.39;100.00;100259.56;4791765;29;20042;-79
2023/09/17 02:37:41;;;;;;;40.30;9.88;;;;;;;13.37;100.00;100260.75;4806089;29;20125;-80
2023/09/17 02:40:11;;;;;;;39.33;10.38;;;;;;;13.40;100.00;100263.91;4799120;29;20099;-80
2023/09/17 02:42:41;;;;;;;33.63;10.32;;;;;;;13.42;100.00;100258.44;4808063;29;20109;-79
2023/09/17 02:45:09;;;;;;;41.22;12.10;;;;;;;13.44;100.00;100260.91;4832286;29;20033;-79
2023/09/17 02:47:40;;;;;;;36.95;10.95;;;;;;;13.40;100.00;100258.59;4782611;29;20034;-79
2023/09/17 02:50:10;;;;;;;52.47;11.05;;;;;;;13.41;100.00;100254.09;4791046;29;20039;-79
2023/09/17 02:52:39;;;;;;;36.60;10.25;;;;;;;13.44;100.00;100256.41;4820647;29;20045;-80
2023/09/17 02:55:08;;;;;;;41.47;10.63;;;;;;;13.43;100.00;100257.44;4807072;29;20052;-80
2023/09/17 02:57:35;;;;;;;38.92;10.43;;;;;;;13.45;100.00;100260.75;4792297;29;20485;-80
2023/09/17 03:00:16;;;;;;;43.05;11.13;;;;;;;13.45;100.00;100258.09;4791871;29;20038;-79
2023/09/17 03:02:47;;;;;;;40.10;10.52;;;;;;;13.48;100.00;100252.44;4803017;29;20038;-80
2023/09/17 03:05:17;;;;;;;40.35;11.07;;;;;;;13.47;100.00;100248.13;4808207;29;20041;-80
2023/09/17 03:07:46;;;;;;;31.42;10.75;;;;;;;13.48;100.00;100239.19;4793377;29;20176;-80
2023/09/17 03:10:14;;;;;;;40.72;11.43;;;;;;;13.45;100.00;100236.84;4796164;29;20078;-79
2023/09/17 03:12:48;;;;;;;41.30;11.13;;;;;;;13.50;100.00;100245.19;4800464;29;20046;-79
2023/09/17 03:15:16;;;;;;;41.22;10.98;;;;;;;13.48;100.00;100239.19;4797865;29;20095;-79
2023/09/17 03:17:45;;;;;;;46.47;11.55;;;;;;;13.53;100.00;100241.34;4785483;29;20046;-79
2023/09/17 03:20:22;;;;;;;43.85;11.32;;;;;;;13.53;100.00;100233.38;4823935;29;20034;-79
2023/09/17 03:22:50;;;;;;;41.35;11.65;;;;;;;13.56;100.00;100230.41;4806092;29;20042;-80
2023/09/17 03:25:19;;;;;;;34.38;11.90;;;;;;;13.56;100.00;100229.56;4776905;29;20054;-80
2023/09/17 03:27:48;;;;;;;51.35;11.98;;;;;;;13.58;100.00;100225.75;4812484;29;20069;-80
2023/09/17 03:30:16;;;;;;;51.20;12.65;;;;;;;13.59;100.00;100229.22;4789650;29;20041;-80
2023/09/17 03:32:45;;;;;;;41.67;12.15;;;;;;;13.61;100.00;100221.91;4802000;29;20122;-80
2023/09/17 03:35:13;;;;;;;45.53;12.15;;;;;;;13.59;100.00;100214.13;4792413;29;20061;-79
2023/09/17 03:37:41;;;;;;;52.75;12.35;;;;;;;13.60;100.00;100207.81;4801658;29;20045;-78
2023/09/17 03:40:11;;;;;;;52.08;12.73;;;;;;;13.60;100.00;100204.34;4814347;29;20506;-80
2023/09/17 03:42:40;;;;;;;56.88;12.88;;;;;;;13.59;100.00;100202.66;4786371;29;20042;-79
2023/09/17 03:45:12;;;;;;;52.80;12.95;;;;;;;13.62;100.00;100199.66;4799434;29;20042;-78
2023/09/17 03:47:44;;;;;;;41.83;12.75;;;;;;;13.62;100.00;100197.00;4805071;29;20393;-78
2023/09/17 03:50:16;;;;;;;45.00;13.07;;;;;;;13.63;100.00;100198.69;4803502;29;20035;-80
2023/09/17 03:52:47;;;;;;;50.33;13.30;;;;;;;13.62;100.00;100191.69;4786245;29;20108;-78
2023/09/17 03:55:15;;;;;;;54.47;13.90;;;;;;;13.61;100.00;100198.00;4806661;29;20273;-80
2023/09/17 03:57:45;;;;;;;51.63;13.77;;;;;;;13.63;100.00;100194.19;4791462;29;20117;-79
2023/09/17 04:00:15;;;;;;;53.97;13.23;;;;;;;13.63;100.00;100183.56;4789535;29;20472;-79
2023/09/17 04:02:46;;;;;;;57.08;14.50;;;;;;;13.66;100.00;100189.53;4779186;29;20046;-79
2023/09/17 04:05:16;;;;;;;52.95;13.77;;;;;;;13.67;100.00;100181.41;4810860;29;20039;-78
2023/09/17 04:07:46;;;;;;;47.25;13.23;;;;;;;13.67;100.00;100181.41;4771149;29;20172;-79
2023/09/17 04:10:17;;;;;;;50.10;14.95;;;;;;;13.71;100.00;100180.03;4789681;29;20030;-79
2023/09/17 04:12:47;;;;;;;42.72;14.38;;;;;;;13.71;100.00;100177.38;4799721;29;20046;-79
2023/09/17 04:15:20;;;;;;;47.88;13.88;;;;;;;13.74;100.00;100178.88;4825541;29;20042;-80
2023/09/17 04:17:51;;;;;;;45.95;14.65;;;;;;;13.76;100.00;100166.28;4823125;29;20038;-80
2023/09/17 04:20:21;;;;;;;31.38;13.27;;;;;;;13.79;100.00;100168.59;4799691;29;20038;-79
2023/09/17 04:22:51;;;;;;;35.15;13.45;;;;;;;13.80;100.00;100164.91;4813119;29;20042;-78
2023/09/17 04:25:21;;;;;;;33.03;13.30;;;;;;;13.80;100.00;100158.75;4792657;29;20412;-77
2023/09/17 04:27:54;;;;;;;38.10;14.13;;;;;;;13.83;100.00;100161.06;4820617;29;20038;-78
2023/09/17 04:30:23;;;;;;;40.83;14.23;;;;;;;13.83;100.00;100158.41;4816783;29;20066;-77
2023/09/17 04:32:54;;;;;;;31.95;13.70;;;;;;;13.87;100.00;100149.94;4803237;29;20041;-77
2023/09/17 04:35:24;;;;;;;40.35;14.75;;;;;;;13.88;100.00;100151.59;4823765;29;20080;-78
2023/09/17 04:37:54;;;;;;;28.33;13.10;;;;;;;13.89;100.00;100144.44;4812340;29;20126;-77
2023/09/17 04:40:29;;;;;;;29.20;13.02;;;;;;;13.90;100.00;100138.16;4795242;29;20037;-78
2023/09/17 04:43:00;;;;;;;25.65;12.65;;;;;;;13.87;100.00;100139.31;4807603;29;20050;-77
2023/09/17 04:45:38;;;;;;;29.33;13.23;;;;;;;13.93;100.00;100140.44;4821743;29;20056;-78
2023/09/17 04:48:22;;;;;;;22.73;12.45;;;;;;;13.91;100.00;100146.94;4794254;29;20387;-77
2023/09/17 04:50:50;;;;;;;25.25;12.93;;;;;;;13.88;100.00;100142.78;4804635;29;20113;-77
2023/09/17 04:53:18;;;;;;;27.45;12.38;;;;;;;13.91;100.00;100136.28;4792432;29;20456;-78
2023/09/17 04:55:48;;;;;;;26.15;12.55;;;;;;;13.88;100.00;100134.81;4805950;29;20041;-80
2023/09/17 04:58:19;;;;;;;25.83;11.85;;;;;;;13.88;100.00;100130.34;4786122;29;20038;-80
2023/09/17 05:00:48;;;;;;;30.58;12.57;;;;;;;13.87;100.00;100126.03;4806197;29;20037;-79
2023/09/17 05:03:18;;;;;;;23.35;11.85;;;;;;;13.92;100.00;100130.00;4792759;29;20045;-80
2023/09/17 05:05:46;;;;;;;20.48;11.45;;;;;;;13.91;100.00;100126.50;4819208;29;20037;-79
2023/09/17 05:08:16;;;;;;;18.75;10.90;;;;;;;13.97;100.00;100125.81;4821364;29;20117;-78
2023/09/17 05:10:46;;;;;;;18.60;10.63;;;;;;;14.00;100.00;100124.63;4795086;29;20463;-79
2023/09/17 05:13:13;;;;;;;17.15;10.15;;;;;;;13.96;100.00;100124.16;4822251;29;20051;-78
2023/09/17 05:15:43;;;;;;;16.98;10.32;;;;;;;13.98;100.00;100124.00;4811517;29;20121;-77
2023/09/17 05:18:12;;;;;;;18.75;9.68;;;;;;;14.01;100.00;100129.75;4820413;29;20046;-76
2023/09/17 05:20:45;;;;;;;17.48;9.32;;;;;;;14.00;100.00;100122.81;4806728;29;20411;-77
2023/09/17 05:23:17;;;;;;;17.70;8.93;;;;;;;14.06;100.00;100123.09;4810283;29;20797;-77
2023/09/17 05:25:47;;;;;;;18.50;10.65;;;;;;;14.05;100.00;100122.28;4824423;29;20050;-75
2023/09/17 05:28:17;;;;;;;13.02;9.32;;;;;;;14.08;100.00;100115.81;4806359;29;20087;-76
2023/09/17 05:30:47;;;;;;;17.77;9.80;;;;;;;14.08;100.00;100115.81;4807517;29;20034;-77
2023/09/17 05:33:16;;;;;;;17.77;10.10;;;;;;;14.10;100.00;100116.44;4807110;29;20129;-77
2023/09/17 05:35:44;;;;;;;20.50;9.63;;;;;;;14.07;100.00;100112.31;4805522;29;20178;-77
2023/09/17 05:38:14;;;;;;;17.85;11.25;;;;;;;14.11;100.00;100107.47;4817321;29;20041;-76
2023/09/17 05:40:43;;;;;;;14.57;10.02;;;;;;;14.11;100.00;100104.81;4790031;29;20042;-76
2023/09/17 05:43:12;;;;;;;17.27;9.32;;;;;;;14.09;100.00;100097.03;4818099;29;20045;-76
2023/09/17 05:45:41;;;;;;;13.38;9.23;;;;;;;14.09;100.00;100097.03;4806436;29;20042;-77
2023/09/17 05:48:08;;;;;;;13.48;8.73;;;;;;;14.11;100.00;100094.19;4812242;29;20041;-76
2023/09/17 05:50:37;;;;;;;12.45;8.32;;;;;;;14.10;100.00;100095.16;4797734;29;20038;-75
2023/09/17 05:53:07;;;;;;;11.30;6.55;;;;;;;14.13;100.00;100100.13;4826356;29;20114;-76
2023/09/17 05:55:36;;;;;;;12.68;5.97;;;;;;;14.15;100.00;100103.44;4810526;29;20050;-75
2023/09/17 05:58:04;;;;;;;11.00;6.28;;;;;;;14.12;100.00;100101.97;4812503;29;20496;-75
2023/09/17 06:00:32;;;;;;;13.55;5.95;;;;;;;14.16;100.00;100097.13;4793013;29;20098;-77
2023/09/17 06:03:00;;;;;;;12.45;5.18;;;;;;;14.13;100.00;100095.66;4808018;29;20041;-77
2023/09/17 06:05:29;;;;;;;13.25;5.78;;;;;;;14.17;100.00;100090.81;4824998;29;20098;-77
2023/09/17 06:07:56;;;;;;;8.52;5.50;;;;;;;14.16;100.00;100093.66;4808956;29;20054;-77
2023/09/17 06:10:26;;;;;;;10.52;5.22;;;;;;;14.18;100.00;100094.28;4838208;29;20046;-78
2023/09/17 06:12:54;;;;;;;10.80;4.82;;;;;;;14.18;100.00;100095.13;4818549;29;20050;-78
2023/09/17 06:15:21;;;;;;;10.25;4.85;;;;;;;14.20;100.00;100098.44;4824218;29;20270;-78
2023/09/17 06:17:49;;;;;;;10.10;4.03;;;;;;;14.18;100.00;100096.94;4800256;29;20118;-78
2023/09/17 06:20:17;;;;;;;7.45;4.63;;;;;;;14.21;100.00;100099.25;4822491;29;20062;-78
2023/09/17 06:22:47;;;;;;;7.55;4.35;;;;;;;14.19;100.00;100101.28;4806434;29;20070;-78
2023/09/17 06:25:16;;;;;;;13.90;4.70;;;;;;;14.24;100.00;100097.06;4811864;29;20038;-77
2023/09/17 06:27:46;;;;;;;9.38;4.32;;;;;;;14.26;100.00;100108.38;4819372;29;20034;-78
2023/09/17 06:30:15;;;;;;;7.97;3.95;;;;;;;14.25;100.00;100105.88;4836059;29;20094;-77
2023/09/17 06:32:43;;;;;;;7.38;3.67;;;;;;;14.25;100.00;100108.53;4854691;29;20506;-76
2023/09/17 06:35:12;;;;;;;5.28;3.63;;;;;;;14.29;100.00;100101.00;4804675;29;20066;-76
2023/09/17 06:37:40;;;;;;;10.02;3.78;;;;;;;14.28;100.00;100100.22;4809868;29;20565;-78
2023/09/17 06:40:10;;;;;;;2.85;2.42;;;;;;;14.34;100.00;100096.00;4837002;29;20066;-78
2023/09/17 06:42:38;;;;;;;2.97;2.05;;;;;;;14.31;100.00;100091.88;4809803;29;20523;-78
2023/09/17 06:45:08;;;;;;;2.92;2.28;;;;;;;14.36;100.00;100096.66;4823642;29;20042;-78
2023/09/17 06:47:35;;;;;;;2.60;1.55;;;;;;;14.36;100.00;100096.66;4799690;29;20044;-84
2023/09/17 06:50:04;;;;;;;3.70;2.30;;;;;;;14.41;100.00;100091.66;4794041;29;20042;-82
2023/09/17 06:52:31;;;;;;;1.50;1.40;;;;;;;14.39;100.00;100091.81;4807349;29;20046;-82
2023/09/17 06:55:01;;;;;;;2.53;1.40;;;;;;;14.46;100.00;100089.25;4790886;29;20178;-83
2023/09/17 06:57:31;;;;;;;3.28;1.40;;;;;;;14.48;100.00;100078.44;4823333;29;20102;-84
2023/09/17 07:00:01;;;;;;;1.55;1.30;;;;;;;14.49;100.00;100072.94;4839617;29;20504;-83
2023/09/17 07:02:30;;;;;;;2.30;1.50;;;;;;;14.54;100.00;100074.25;4841879;29;20041;-77
2023/09/17 07:05:00;;;;;;;4.07;1.90;;;;;;;14.52;100.00;100083.22;4809124;29;20034;-83
2023/09/17 07:07:30;;;;;;;6.43;1.35;;;;;;;14.51;100.00;100083.41;4839355;29;20093;-82
2023/09/17 07:10:00;;;;;;;2.08;1.60;;;;;;;14.51;100.00;100078.06;4823537;29;20054;-78
2023/09/17 07:12:27;;;;;;;4.30;1.70;;;;;;;14.48;100.00;100089.91;4808153;29;20398;-79
2023/09/17 07:14:55;;;;;;;4.38;1.75;;;;;;;14.51;100.00;100097.53;4809046;29;20155;-79
2023/09/17 07:17:23;;;;;;;3.10;2.20;;;;;;;14.51;100.00;100091.38;4820412;29;20034;-79
2023/09/17 07:19:53;;;;;;;3.50;1.55;;;;;;;14.57;100.00;100089.84;4823404;29;20475;-79
2023/09/17 07:22:22;;;;;;;2.58;1.67;;;;;;;14.56;100.00;100086.34;4824327;29;20077;-79
2023/09/17 07:24:56;;;;;;;3.85;1.63;;;;;;;14.58;100.00;100097.66;4808618;29;20485;-77
2023/09/17 07:27:23;;;;;;;1.40;1.27;;;;;;;14.59;100.00;100098.44;4824657;29;20054;-78
2023/09/17 07:29:53;;;;;;;2.15;1.35;;;;;;;14.63;100.00;100092.63;4830721;29;20042;-79
2023/09/17 07:32:21;;;;;;;2.72;1.65;;;;;;;14.62;100.00;100092.81;4823644;29;20086;-79
2023/09/17 07:34:49;;;;;;;3.72;1.75;;;;;;;14.65;100.00;100089.78;4803444;29;20491;-79
2023/09/17 07:37:18;;;;;;;1.77;1.40;;;;;;;14.62;100.00;100084.81;4831262;29;20082;-78
2023/09/17 07:39:47;;;;;;;1.95;1.38;;;;;;;14.63;100.00;100089.97;4808115;29;20066;-78
2023/09/17 07:42:15;;;;;;;1.75;1.40;;;;;;;14.61;100.00;100085.81;4809157;29;20067;-78
2023/09/17 07:44:42;;;;;;;2.92;1.65;;;;;;;14.66;100.00;100093.25;4791782;29;20050;-79
2023/09/17 07:47:12;;;;;;;1.13;0.95;;;;;;;14.62;100.00;100080.31;4836073;29;20519;-78
2023/09/17 07:49:41;;;;;;;2.03;1.30;;;;;;;14.68;100.00;100092.09;4802653;29;20069;-79
2023/09/17 07:52:11;;;;;;;1.60;1.45;;;;;;;14.70;100.00;100086.59;4794398;29;20038;-77
2023/09/17 07:54:41;;;;;;;3.03;1.13;;;;;;;14.70;100.00;100075.94;4808143;29;20506;-78
2023/09/17 07:57:12;;;;;;;2.88;1.40;;;;;;;14.73;100.00;100076.38;4813184;29;20045;-78
2023/09/17 07:59:40;;;;;;;1.40;1.30;;;;;;;14.71;100.00;100066.94;4816271;29;20085;-78
2023/09/17 08:02:09;;;;;;;1.70;1.60;;;;;;;14.75;100.00;100066.41;4807852;29;20034;-78
2023/09/17 08:04:36;;;;;;;5.00;2.00;;;;;;;14.80;100.00;100065.03;4810378;29;20038;-78
2023/09/17 08:07:06;;;;;;;3.47;1.77;;;;;;;14.87;100.00;100066.00;4806500;29;20038;-78
2023/09/17 08:09:36;;;;;;;4.72;1.83;;;;;;;14.93;100.00;100057.28;4820725;29;20033;-78
2023/09/17 08:12:08;;;;;;;2.15;1.95;;;;;;;14.98;100.00;100059.38;4817831;29;20030;-79
2023/09/17 08:14:44;;;;;;;3.53;1.83;;;;;;;15.05;100.00;100057.63;4777503;29;20034;-79
2023/09/17 08:17:12;;;;;;;5.50;1.50;;;;;;;15.05;100.00;100056.81;4804822;29;20037;-80
2023/09/17 08:19:40;;;;;;;2.08;1.83;;;;;;;15.13;100.00;100048.72;4817592;29;20042;-79
2023/09/17 08:22:08;;;;;;;3.00;1.80;;;;;;;15.14;100.00;100053.06;4804655;29;20042;-79
2023/09/17 08:24:57;;;;;;;2.53;1.98;;;;;;;15.17;100.00;100050.03;4804913;29;20608;-80
2023/09/17 08:27:44;;;;;;;2.00;1.80;;;;;;;15.19;100.00;100047.19;4837712;29;20114;-79
2023/09/17 08:30:33;;;;;;;4.50;1.95;;;;;;;15.27;100.00;100049.75;4815422;29;20485;-78
2023/09/17 08:33:21;;;;;;;3.65;2.38;;;;;;;15.32;100.00;100047.34;4801804;29;20106;-80
2023/09/17 08:36:06;;;;;;;8.68;3.67;;;;;;;15.31;100.00;100048.34;4793875;29;20052;-79
2023/09/17 08:38:34;;;;;;;4.10;3.15;;;;;;;15.29;100.00;100044.25;4814665;29;20037;-80
2023/09/17 08:41:06;;;;;;;7.88;4.18;;;;;;;15.33;100.00;100045.50;4802431;29;20050;-81
2023/09/17 08:43:36;;;;;;;7.90;4.57;;;;;;;15.31;100.00;100039.53;4821674;29;20056;-83
2023/09/17 08:46:06;;;;;;;7.15;4.10;;;;;;;15.30;100.00;100044.06;4820301;29;20140;-81
2023/09/17 08:48:36;;;;;;;7.90;4.93;;;;;;;15.34;100.00;100047.97;4800965;29;20113;-81
2023/09/17 08:51:09;;;;;;;12.20;5.55;;;;;;;15.38;100.00;100046.59;4792377;29;20041;-80
2023/09/17 08:53:50;;;;;;;13.63;5.45;;;;;;;15.47;100.00;100043.81;4787882;29;20133;-81
2023/09/17 08:56:19;;;;;;;8.00;5.07;;;;;;;15.48;100.00;100048.16;4804611;29;20094;-80
2023/09/17 08:58:55;;;;;;;7.90;5.30;;;;;;;15.52;100.00;100044.09;4806542;29;20215;-80
2023/09/17 09:01:26;;;;;;;9.88;5.15;;;;;;;15.55;100.00;100040.22;4818815;29;20132;-80
2023/09/17 09:03:56;;;;;;;9.50;4.70;;;;;;;15.52;100.00;100037.94;4822001;29;20044;-81
2023/09/17 09:06:26;;;;;;;6.07;4.68;;;;;;;15.44;100.00;100029.06;4792877;29;20503;-81
2023/09/17 09:08:55;;;;;;;16.80;4.82;;;;;;;15.45;100.00;100033.34;4831241;29;20095;-81
2023/09/17 09:11:23;;;;;;;8.07;4.55;;;;;;;15.41;100.00;100032.09;4820647;29;20187;-79
2023/09/17 09:13:55;;;;;;;8.10;4.75;;;;;;;15.44;100.00;100026.41;4797541;29;20527;-80
2023/09/17 09:16:25;;;;;;;9.38;4.75;;;;;;;15.40;100.00;100029.63;4815308;29;20041;-80
2023/09/17 09:18:55;;;;;;;5.85;3.88;;;;;;;15.40;100.00;100017.09;4799076;29;20042;-79
2023/09/17 09:21:24;;;;;;;8.15;4.43;;;;;;;15.38;100.00;100024.47;4818899;29;20041;-80
2023/09/17 09:23:52;;;;;;;9.85;4.10;;;;;;;15.37;100.00;100014.81;4803180;29;20072;-81
2023/09/17 09:26:22;;;;;;;9.07;4.43;;;;;;;15.49;100.00;100017.84;4805658;29;20050;-80
2023/09/17 09:28:50;;;;;;;9.02;5.65;;;;;;;15.54;100.00;100006.63;4814860;29;20556;-79
2023/09/17 09:31:19;;;;;;;10.63;4.72;;;;;;;15.60;100.00;100020.03;4807273;29;20046;-80
2023/09/17 09:33:48;;;;;;;11.77;4.45;;;;;;;15.67;100.00;100017.41;4820758;29;20365;-79
2023/09/17 09:36:21;;;;;;;9.27;3.65;;;;;;;15.67;100.00;100003.28;4840492;29;20038;-79
2023/09/17 09:38:51;;;;;;;6.07;3.50;;;;;;;15.72;100.00;100004.34;4807150;29;20038;-81
2023/09/17 09:41:21;;;;;;;7.32;3.75;;;;;;;15.84;100.00;99999.34;4790322;29;20064;-81
2023/09/17 09:43:50;;;;;;;6.03;3.92;;;;;;;15.91;100.00;99999.41;4804550;29;20452;-80
2023/09/17 09:46:28;;;;;;;9.70;3.70;;;;;;;15.98;100.00;99992.34;4816614;29;20122;-80
2023/09/17 09:49:01;;;;;;;8.52;3.55;;;;;;;16.12;100.00;100000.44;4785720;29;20055;-81
2023/09/17 09:51:35;;;;;;;6.88;2.90;;;;;;;16.14;100.00;100001.06;4789861;29;20039;-81
2023/09/17 09:54:05;;;;;;;6.15;3.20;;;;;;;16.19;100.00;100004.00;4833491;29;20031;-80
2023/09/17 09:56:34;;;;;;;9.27;3.47;;;;;;;16.19;100.00;99998.66;4791129;29;20065;-80
2023/09/17 09:59:03;;;;;;;8.90;3.30;;;;;;;16.19;100.00;99998.66;4790315;29;20042;-81
2023/09/17 10:01:35;;;;;;;5.72;2.92;;;;;;;16.19;100.00;99992.50;4788130;29;20515;-81
2023/09/17 10:04:05;;;;;;;7.93;3.00;;;;;;;16.14;100.00;99989.56;4780072;29;20038;-82
2023/09/17 10:06:36;;;;;;;6.57;3.40;;;;;;;16.11;100.00;99988.13;4769790;29;20523;-83
2023/09/17 10:09:06;;;;;;;9.18;3.60;;;;;;;16.17;100.00;99975.88;4797669;29;20086;-80
2023/09/17 10:11:35;;;;;;;8.18;3.22;;;;;;;16.27;100.00;99965.69;4779264;29;20102;-82
2023/09/17 10:14:04;;;;;;;8.15;3.33;;;;;;;16.35;100.00;99967.41;4805973;29;20038;-82
2023/09/17 10:16:36;;;;;;;5.18;3.08;;;;;;;16.40;100.00;99966.81;4786186;29;20038;-82
2023/09/17 10:19:09;;;;;;;6.05;3.03;;;;;;;16.42;100.00;99962.13;4786412;29;20087;-80
2023/09/17 10:21:40;;;;;;;9.20;3.45;;;;;;;16.41;100.00;99953.28;4777210;29;20053;-80
2023/09/17 10:24:10;;;;;;;6.80;3.35;;;;;;;16.39;100.00;99959.84;4791498;29;20077;-82
2023/09/17 10:26:42;;;;;;;3.97;2.75;;;;;;;16.35;100.00;99959.41;4819613;29;20084;-80
2023/09/17 10:29:13;;;;;;;10.38;3.40;;;;;;;16.36;100.00;99953.03;4811201;29;20439;-81
2023/09/17 10:31:43;;;;;;;10.05;2.90;;;;;;;16.28;100.00;99950.50;4806277;29;20413;-80
2023/09/17 10:34:13;;;;;;;6.65;3.35;;;;;;;16.24;100.00;99947.44;4818357;29;20805;-81
2023/09/17 10:36:44;;;;;;;9.32;3.25;;;;;;;16.16;100.00;99939.56;4803911;29;21267;-81
2023/09/17 10:39:15;;;;;;;7.93;3.55;;;;;;;16.13;100.00;99938.13;4789973;29;20050;-81
2023/09/17 10:41:45;;;;;;;7.28;4.10;;;;;;;16.15;100.00;99936.06;4790957;29;20049;-82
2023/09/17 10:44:15;;;;;;;9.60;4.13;;;;;;;16.19;100.00;99931.19;4812014;29;20043;-82
2023/09/17 10:46:46;;;;;;;6.22;3.90;;;;;;;16.23;100.00;99932.41;4785836;29;20057;-82
2023/09/17 10:49:14;;;;;;;8.32;3.72;;;;;;;16.25;100.00;99930.41;4803716;29;20044;-82
2023/09/17 10:51:45;;;;;;;11.93;3.88;;;;;;;16.34;100.00;99925.75;4803362;29;20066;-82
2023/09/17 10:54:14;;;;;;;11.02;3.47;;;;;;;16.29;100.00;99912.16;4817440;29;20041;-81
2023/09/17 10:56:45;;;;;;;8.77;3.92;;;;;;;16.28;100.00;99908.66;4833624;29;20449;-82
2023/09/17 10:59:17;;;;;;;7.80;3.95;;;;;;;16.24;100.00;99913.56;4803785;29;20094;-82
2023/09/17 11:01:49;;;;;;;11.20;4.00;;;;;;;16.22;100.00;99914.78;4804441;29;20128;-80
2023/09/17 11:04:22;;;;;;;9.07;4.15;;;;;;;16.22;100.00;99904.97;4816499;29;20035;-80
2023/09/17 11:06:52;;;;;;;7.40;3.35;;;;;;;16.23;100.00;99911.94;4807247;29;20113;-81
2023/09/17 11:09:21;;;;;;;5.72;3.55;;;;;;;16.14;100.00;99913.09;4814628;29;20575;-82
2023/09/17 11:11:50;;;;;;;7.28;3.50;;;;;;;16.11;100.00;99909.00;4806110;29;20514;-80
2023/09/17 11:14:18;;;;;;;6.97;4.05;;;;;;;16.08;100.00;99904.03;4799268;29;20515;-80
2023/09/17 11:16:49;;;;;;;9.68;4.00;;;;;;;16.07;100.00;99905.03;4791649;29;20376;-78
2023/09/17 11:19:19;;;;;;;7.45;3.60;;;;;;;15.97;100.00;99904.53;4790598;29;20062;-80
2023/09/17 11:22:00;;;;;;;12.65;4.43;;;;;;;15.99;100.00;99897.19;4804338;29;20034;-80
2023/09/17 11:24:28;;;;;;;8.32;3.33;;;;;;;15.97;100.00;99902.72;4783648;29;20058;-81